LELC/MJV METAR and TAF weather

Enter ICAO airport designator
Station Type Date Time Source
LELC METAR 2020/12/06 01:30 UTC NOAA

LELC 060130Z AUTO 25011KT 9000 NCD 08/00 Q1009


Station Type Date Time Source
LELC Decoded METAR 2020/12/06 01:30 UTC NOAA

Murcia / San Javier, Spain (LELC) 37-47N 000-48W 3M
Dec 05, 2020 - 08:30 PM EST / 2020.12.06 0130 UTC
Wind: from the WSW (250 degrees) at 13 MPH (11 KT):0
Visibility: 5 mile(s):0
Temperature: 46 F (8 C)
Dew Point: 32 F (0 C)
Relative Humidity: 56%
Pressure (altimeter): 29.80 in. Hg (1009 hPa)
ob: LELC 060130Z AUTO 25011KT 9000 NCD 08/00 Q1009
cycle: 1

Station Type Date Time Source
LELC TAF 2020/12/05 18:27 UTC NOAA

TAF LELC 051700Z 0518/0618 24007KT CAVOK TX16/0614Z TN05/0606Z
BECMG 0608/0610 30015KT PROB40
TEMPO 0610/0618 30015G25KT

Example: see airport list